Time;durP1;ratioP1;P1;durP2;ratioP2;P2;SDS_P1;SDS_P2;PMS_P1;PMS_P2;Temp;Humidity;BMP_temperature;BMP_pressure;BME280_temperature;BME280_humidity;BME280_pressure;Samples;Min_cycle;Max_cycle;Signal;HPM_P1;HPM_P2
2023/03/12 00:02:04;;;;;;;9.25;4.10;;;;;;;1.90;71.96;101144.50;5088767;28;20517;-73
2023/03/12 00:04:30;;;;;;;7.38;4.00;;;;;;;1.91;71.38;101143.63;5089613;28;20032;-73
2023/03/12 00:06:56;;;;;;;7.40;3.78;;;;;;;1.89;71.32;101137.47;5088121;28;20028;-73
2023/03/12 00:09:22;;;;;;;6.15;4.00;;;;;;;1.89;71.55;101134.88;5093702;28;20024;-73
2023/03/12 00:11:48;;;;;;;8.43;3.97;;;;;;;1.93;71.74;101139.31;5075614;28;20036;-74
2023/03/12 00:14:13;;;;;;;10.07;3.90;;;;;;;1.90;71.35;101135.75;5106684;28;20031;-74
2023/03/12 00:16:39;;;;;;;10.98;3.88;;;;;;;1.92;71.30;101128.81;5093468;28;20126;-74
2023/03/12 00:19:05;;;;;;;13.43;4.60;;;;;;;1.91;72.49;101127.94;5083669;28;20071;-74
2023/03/12 00:21:30;;;;;;;6.90;3.92;;;;;;;1.93;71.28;101131.47;5093074;28;20113;-74
2023/03/12 00:23:59;;;;;;;7.07;4.00;;;;;;;1.94;71.82;101117.56;5093231;28;20020;-74
2023/03/12 00:26:24;;;;;;;7.85;3.92;;;;;;;1.90;71.72;101112.25;5093282;28;20400;-73
2023/03/12 00:28:50;;;;;;;10.38;4.40;;;;;;;1.90;71.98;101107.94;5091828;28;20016;-73
2023/03/12 00:31:20;;;;;;;7.60;3.90;;;;;;;1.88;71.90;101109.63;5093507;28;20039;-73
2023/03/12 00:33:52;;;;;;;6.88;3.38;;;;;;;1.88;71.49;101103.50;5093189;28;20032;-73
2023/03/12 00:36:23;;;;;;;6.05;3.45;;;;;;;1.84;71.89;101104.31;5088763;28;20114;-74
2023/03/12 00:38:48;;;;;;;8.27;3.67;;;;;;;1.85;72.58;101100.84;5089445;28;20032;-74
2023/03/12 00:41:14;;;;;;;9.45;3.60;;;;;;;1.86;72.83;101097.38;5091545;28;20031;-74
2023/03/12 00:43:39;;;;;;;13.38;3.60;;;;;;;1.87;72.28;101086.94;5090079;28;20045;-73
2023/03/12 00:46:05;;;;;;;9.02;3.88;;;;;;;1.85;72.34;101095.63;5078831;28;20480;-74
2023/03/12 00:48:30;;;;;;;10.50;4.07;;;;;;;1.83;72.49;101095.59;5071952;28;20110;-74
2023/03/12 00:50:56;;;;;;;10.30;3.42;;;;;;;1.85;72.47;101099.09;5058137;28;20016;-74
2023/03/12 00:53:21;;;;;;;7.32;4.00;;;;;;;1.83;72.71;101084.25;5064337;28;20395;-74
2023/03/12 00:55:47;;;;;;;8.07;3.70;;;;;;;1.88;72.15;101085.22;5090211;28;20409;-74
2023/03/12 00:58:12;;;;;;;9.88;3.92;;;;;;;1.84;72.64;101078.19;5091142;28;20393;-74
2023/03/12 01:00:38;;;;;;;7.22;4.10;;;;;;;1.85;72.67;101079.94;5090943;28;20043;-75
2023/03/12 01:03:03;;;;;;;11.00;4.00;;;;;;;1.83;72.57;101079.94;5091156;28;20131;-74
2023/03/12 01:05:30;;;;;;;9.68;3.55;;;;;;;1.82;73.18;101072.06;5090029;28;20036;-74
2023/03/12 01:07:56;;;;;;;8.23;3.92;;;;;;;1.82;73.12;101064.22;5087481;28;20063;-74
2023/03/12 01:10:21;;;;;;;13.73;3.83;;;;;;;1.83;72.62;101065.97;5073448;28;20087;-74
2023/03/12 01:12:47;;;;;;;10.63;4.53;;;;;;;1.84;73.26;101066.00;5079179;28;20081;-74
2023/03/12 01:15:15;;;;;;;7.82;3.78;;;;;;;1.84;73.65;101065.16;5091094;28;20039;-74
2023/03/12 01:17:41;;;;;;;10.85;4.20;;;;;;;1.84;73.41;101070.38;5082843;28;20568;-74
2023/03/12 01:20:08;;;;;;;11.30;3.38;;;;;;;1.83;73.10;101069.50;5091418;28;20106;-74
2023/03/12 01:22:34;;;;;;;11.48;4.10;;;;;;;1.82;73.66;101070.31;5081195;28;20047;-74
2023/03/12 01:25:00;;;;;;;8.40;3.90;;;;;;;1.82;72.50;101061.63;5086255;28;20512;-74
2023/03/12 01:27:26;;;;;;;11.35;4.15;;;;;;;1.82;72.47;101059.88;5085390;28;20032;-74
2023/03/12 01:29:51;;;;;;;8.40;3.45;;;;;;;1.85;73.05;101061.66;5089785;28;20493;-74
2023/03/12 01:32:17;;;;;;;8.65;3.92;;;;;;;1.87;72.72;101065.19;5071764;28;20395;-74
2023/03/12 01:34:43;;;;;;;11.43;3.67;;;;;;;1.85;73.52;101067.75;5082481;28;20102;-74
2023/03/12 01:37:09;;;;;;;8.70;3.90;;;;;;;1.88;73.21;101066.94;5054140;28;20471;-74
2023/03/12 01:39:34;;;;;;;7.85;3.45;;;;;;;1.87;72.54;101059.97;5059568;28;20021;-74
2023/03/12 01:42:03;;;;;;;7.05;3.92;;;;;;;1.85;73.19;101053.84;5059263;28;20032;-74
2023/03/12 01:44:29;;;;;;;7.00;4.00;;;;;;;1.83;73.18;101040.78;5087091;28;20040;-74
2023/03/12 01:46:54;;;;;;;6.32;4.10;;;;;;;1.86;73.77;101038.19;5084219;28;20056;-74
2023/03/12 01:49:31;;;;;;;13.40;3.80;;;;;;;1.86;73.38;101027.75;5077492;28;20062;-74
2023/03/12 01:52:02;;;;;;;7.00;3.92;;;;;;;1.84;73.75;101023.38;5072680;28;20052;-74
2023/03/12 01:55:02;;;;;;;11.07;4.40;;;;;;;1.84;73.40;101029.47;5076063;28;20211;-74
2023/03/12 01:57:35;;;;;;;10.35;4.22;;;;;;;1.82;74.68;101022.44;5082951;28;20067;-74
2023/03/12 02:00:10;;;;;;;7.30;3.45;;;;;;;1.84;73.58;101031.19;5072983;28;20075;-74
2023/03/12 02:02:44;;;;;;;7.20;3.42;;;;;;;1.84;73.75;101025.97;5069706;28;20040;-74
2023/03/12 02:05:24;;;;;;;9.98;4.13;;;;;;;1.85;73.93;101030.34;5081798;28;20108;-74
2023/03/12 02:07:50;;;;;;;11.45;3.97;;;;;;;1.86;73.15;101032.09;5079922;28;20032;-74
2023/03/12 02:10:16;;;;;;;8.65;4.10;;;;;;;1.86;73.17;101021.66;5086397;28;20457;-74
2023/03/12 02:12:42;;;;;;;11.35;3.97;;;;;;;1.84;73.84;101020.75;5090172;28;20529;-74
2023/03/12 02:15:08;;;;;;;9.90;3.65;;;;;;;1.83;73.63;101011.13;5069988;28;20029;-74
2023/03/12 02:17:39;;;;;;;7.18;4.22;;;;;;;1.85;73.45;101014.66;5072066;28;20043;-74
2023/03/12 02:20:24;;;;;;;12.68;4.03;;;;;;;1.86;74.66;101006.88;5071583;28;20486;-74
2023/03/12 02:23:03;;;;;;;7.10;3.58;;;;;;;1.83;73.69;100995.47;5080500;28;20089;-74
2023/03/12 02:25:45;;;;;;;9.18;3.65;;;;;;;1.83;74.82;100988.53;5087101;28;20033;-74
2023/03/12 02:28:16;;;;;;;7.65;3.80;;;;;;;1.87;73.86;100994.69;5095407;28;20024;-74
2023/03/12 02:30:46;;;;;;;12.68;6.72;;;;;;;1.85;74.51;100975.50;5077561;28;20514;-74
2023/03/12 02:33:14;;;;;;;9.43;3.80;;;;;;;1.88;74.92;100984.28;5085630;28;20024;-74
2023/03/12 02:35:39;;;;;;;9.10;4.10;;;;;;;1.88;74.12;100980.75;5075529;28;20035;-74
2023/03/12 02:38:45;;;;;;;12.95;3.85;;;;;;;1.94;74.81;100986.97;5073798;28;20383;-74
2023/03/12 02:41:20;;;;;;;5.43;3.28;;;;;;;1.93;73.99;100985.22;5034264;28;20037;-74
2023/03/12 02:43:50;;;;;;;11.40;4.38;;;;;;;1.94;74.16;100980.88;5052681;28;20033;-74
2023/03/12 02:46:16;;;;;;;10.07;3.65;;;;;;;1.93;74.42;100980.00;5060401;28;20040;-74
2023/03/12 02:48:42;;;;;;;12.77;3.83;;;;;;;1.90;74.45;100981.66;5065976;28;20027;-74
2023/03/12 02:51:08;;;;;;;11.13;3.83;;;;;;;1.90;74.59;100982.56;5091837;28;20032;-74
2023/03/12 02:53:33;;;;;;;9.25;3.88;;;;;;;1.92;74.62;100972.13;5074227;28;20036;-74
2023/03/12 02:55:59;;;;;;;13.25;3.97;;;;;;;1.92;74.62;100969.50;5077893;28;20036;-74
2023/03/12 02:58:25;;;;;;;21.85;4.03;;;;;;;1.92;74.15;100969.50;5082400;28;20060;-74
2023/03/12 03:00:50;;;;;;;6.47;3.80;;;;;;;1.89;74.49;100956.41;5079673;28;20048;-74
2023/03/12 03:03:16;;;;;;;9.48;3.80;;;;;;;1.88;74.81;100959.88;5073002;28;20094;-74
2023/03/12 03:05:41;;;;;;;11.82;4.15;;;;;;;1.90;74.78;100959.06;5070229;28;20041;-74
2023/03/12 03:08:07;;;;;;;9.43;4.65;;;;;;;1.89;74.32;100956.41;5073705;28;20025;-74
2023/03/12 03:10:33;;;;;;;12.77;4.00;;;;;;;1.91;74.84;100963.41;5084384;28;20032;-74
2023/03/12 03:12:59;;;;;;;10.98;4.22;;;;;;;1.91;75.15;100962.53;5094057;28;20084;-74
2023/03/12 03:15:26;;;;;;;7.45;3.88;;;;;;;1.92;74.90;100966.91;5070634;28;20033;-74
2023/03/12 03:17:52;;;;;;;10.65;4.25;;;;;;;1.91;75.67;100965.16;5088888;28;20491;-74
2023/03/12 03:20:18;;;;;;;12.25;4.55;;;;;;;1.90;76.06;100966.91;5073053;28;20056;-74
2023/03/12 03:22:44;;;;;;;7.60;4.07;;;;;;;1.89;76.85;100969.47;5074176;28;20041;-74
2023/03/12 03:25:10;;;;;;;19.27;4.60;;;;;;;1.87;77.01;100964.22;5081982;28;20156;-74
2023/03/12 03:27:36;;;;;;;7.82;4.22;;;;;;;1.89;77.03;100964.25;5079222;28;20036;-74
2023/03/12 03:30:02;;;;;;;7.78;4.05;;;;;;;1.91;76.81;100966.03;5079418;28;20032;-74
2023/03/12 03:32:31;;;;;;;7.78;4.25;;;;;;;1.92;76.96;100972.13;5072492;28;20036;-74
2023/03/12 03:34:56;;;;;;;14.95;4.60;;;;;;;1.93;76.93;100964.31;5085171;28;20051;-74
2023/03/12 03:37:22;;;;;;;8.13;4.55;;;;;;;1.94;76.81;100962.59;5088781;28;20125;-74
2023/03/12 03:39:47;;;;;;;9.75;4.13;;;;;;;1.98;77.23;100960.88;5064927;28;20034;-74
2023/03/12 03:42:13;;;;;;;8.27;4.63;;;;;;;1.97;77.72;100948.69;5092284;28;20037;-74
2023/03/12 03:44:39;;;;;;;14.52;4.70;;;;;;;1.98;77.90;100956.56;5085086;28;20111;-74
2023/03/12 03:47:05;;;;;;;12.90;4.65;;;;;;;2.01;78.40;100940.06;5075300;28;20131;-74
2023/03/12 03:49:31;;;;;;;7.50;3.47;;;;;;;2.01;78.95;100946.16;5071382;28;20032;-74
2023/03/12 03:51:56;;;;;;;7.47;3.90;;;;;;;2.03;80.20;100941.84;5084506;28;20024;-74
2023/03/12 03:54:29;;;;;;;11.73;4.05;;;;;;;2.03;80.00;100925.25;5087216;28;20031;-74
2023/03/12 03:56:55;;;;;;;9.15;3.50;;;;;;;2.07;79.90;100930.56;5066502;28;20499;-74
2023/03/12 03:59:21;;;;;;;7.45;3.38;;;;;;;2.07;80.05;100920.09;5089850;28;20119;-74
2023/03/12 04:01:47;;;;;;;7.15;3.50;;;;;;;2.14;80.32;100916.72;5079784;28;20052;-74
2023/03/12 04:04:13;;;;;;;9.90;3.30;;;;;;;2.11;80.39;100905.38;5091640;28;20071;-74
2023/03/12 04:06:39;;;;;;;12.10;3.55;;;;;;;2.11;81.30;100903.63;5092061;28;20062;-74
2023/03/12 04:09:06;;;;;;;7.45;3.45;;;;;;;2.08;81.35;100898.38;5093687;28;20057;-74
2023/03/12 04:11:34;;;;;;;8.82;3.25;;;;;;;2.14;80.86;100901.03;5061140;28;20032;-74
2023/03/12 04:14:01;;;;;;;7.10;3.47;;;;;;;2.14;81.33;100890.59;5072765;28;20035;-74
2023/03/12 04:16:29;;;;;;;7.82;3.63;;;;;;;2.13;82.00;100883.63;5071762;28;20463;-75
2023/03/12 04:18:56;;;;;;;9.68;3.65;;;;;;;2.11;81.97;100874.88;5048135;28;20032;-74
2023/03/12 04:21:23;;;;;;;9.68;4.28;;;;;;;2.12;82.16;100874.03;5091033;28;20043;-74
2023/03/12 04:23:50;;;;;;;15.07;3.85;;;;;;;2.17;81.36;100875.81;5091964;28;20032;-74
2023/03/12 04:26:16;;;;;;;8.15;3.88;;;;;;;2.13;81.99;100861.88;5077871;28;20077;-75
2023/03/12 04:28:42;;;;;;;11.13;4.28;;;;;;;2.17;81.98;100858.41;5070665;28;20031;-74
2023/03/12 04:31:10;;;;;;;9.57;3.88;;;;;;;2.14;82.41;100855.75;5084176;28;20029;-74
2023/03/12 04:33:44;;;;;;;6.13;3.58;;;;;;;2.15;81.90;100855.78;5072574;28;20039;-74
2023/03/12 04:36:12;;;;;;;6.53;3.60;;;;;;;2.15;81.37;100854.91;5085039;28;20423;-74
2023/03/12 04:38:40;;;;;;;12.57;4.85;;;;;;;2.14;81.88;100847.94;5086287;28;20028;-75
2023/03/12 04:41:10;;;;;;;8.68;3.72;;;;;;;2.10;81.85;100853.97;5077398;28;20032;-74
2023/03/12 04:43:38;;;;;;;9.70;4.32;;;;;;;2.09;81.40;100842.63;5073841;28;20039;-74
2023/03/12 04:46:04;;;;;;;8.25;4.13;;;;;;;2.12;82.20;100847.91;5073594;28;20032;-74
2023/03/12 04:48:30;;;;;;;8.32;3.55;;;;;;;2.10;81.46;100852.25;5065978;28;20120;-74
2023/03/12 04:50:56;;;;;;;16.55;4.38;;;;;;;2.10;81.47;100839.19;5064588;28;20036;-74
2023/03/12 04:53:23;;;;;;;7.88;3.50;;;;;;;2.11;81.78;100838.31;5064175;28;20071;-74
2023/03/12 04:55:50;;;;;;;12.25;3.80;;;;;;;2.14;82.04;100847.94;5085347;28;20036;-74
2023/03/12 04:58:17;;;;;;;9.70;3.60;;;;;;;2.09;82.09;100839.16;5083967;28;20441;-74
2023/03/12 05:00:44;;;;;;;12.05;4.05;;;;;;;2.11;81.51;100840.94;5051878;28;20036;-74
2023/03/12 05:03:10;;;;;;;8.25;4.22;;;;;;;2.10;82.23;100835.66;5088411;28;20036;-74
2023/03/12 05:05:36;;;;;;;8.20;3.97;;;;;;;2.10;82.55;100833.06;5070068;28;20036;-74
2023/03/12 05:08:03;;;;;;;11.25;3.65;;;;;;;2.10;82.55;100825.22;5085401;28;20085;-74
2023/03/12 05:10:29;;;;;;;9.82;4.22;;;;;;;2.11;82.19;100827.00;5077606;28;20051;-74
2023/03/12 05:12:55;;;;;;;10.68;4.13;;;;;;;2.11;82.17;100816.56;5071990;28;20032;-74
2023/03/12 05:15:21;;;;;;;9.02;4.00;;;;;;;2.08;83.05;100812.16;5082916;28;20048;-74
2023/03/12 05:17:47;;;;;;;6.13;3.55;;;;;;;2.11;82.84;100806.97;5073465;28;20080;-74
2023/03/12 05:20:13;;;;;;;6.95;3.63;;;;;;;2.13;83.00;100802.66;5090510;28;20036;-74
2023/03/12 05:22:39;;;;;;;9.00;4.03;;;;;;;2.15;82.71;100813.09;5084363;28;20519;-74
2023/03/12 05:25:06;;;;;;;11.43;3.65;;;;;;;2.15;83.17;100798.31;5079924;28;20062;-74
2023/03/12 05:27:32;;;;;;;6.38;3.53;;;;;;;2.14;82.61;100793.94;5077205;28;20092;-74
2023/03/12 05:29:58;;;;;;;8.07;3.60;;;;;;;2.13;83.03;100789.59;5089194;28;20036;-75
2023/03/12 05:32:24;;;;;;;8.52;3.63;;;;;;;2.11;83.77;100786.06;5062978;28;20031;-74
2023/03/12 05:34:50;;;;;;;8.52;3.97;;;;;;;2.14;83.60;100799.16;5086606;28;20590;-74
2023/03/12 05:37:15;;;;;;;13.52;3.85;;;;;;;2.14;84.63;100790.47;5071837;28;20459;-74
2023/03/12 05:39:45;;;;;;;9.15;3.75;;;;;;;2.13;84.62;100789.59;5059816;28;20029;-74
2023/03/12 05:42:13;;;;;;;8.38;3.95;;;;;;;2.16;85.36;100801.81;5083643;28;20150;-74
2023/03/12 05:44:39;;;;;;;10.95;3.50;;;;;;;2.17;85.49;100802.69;5068544;28;20032;-74
2023/03/12 05:47:05;;;;;;;13.55;4.45;;;;;;;2.14;86.26;100790.47;5090288;28;20067;-74
2023/03/12 05:49:31;;;;;;;10.35;3.88;;;;;;;2.14;87.03;100793.06;5086071;28;20059;-74
2023/03/12 05:51:57;;;;;;;11.00;4.22;;;;;;;2.16;86.76;100791.34;5086750;28;20580;-74
2023/03/12 05:54:23;;;;;;;7.72;3.50;;;;;;;2.14;87.30;100788.72;5071636;28;20021;-74
2023/03/12 05:56:51;;;;;;;10.23;3.55;;;;;;;2.16;88.00;100791.34;5091048;28;20032;-74
2023/03/12 05:59:17;;;;;;;8.32;3.42;;;;;;;2.15;88.17;100793.09;5089077;28;20035;-74
2023/03/12 06:01:44;;;;;;;8.85;3.53;;;;;;;2.21;88.24;100789.66;5069091;28;20040;-74
2023/03/12 06:04:10;;;;;;;12.93;4.20;;;;;;;2.21;88.55;100789.66;5088119;28;20062;-75
2023/03/12 06:06:36;;;;;;;9.95;3.92;;;;;;;2.21;89.85;100788.78;5070584;28;20062;-74
2023/03/12 06:09:04;;;;;;;10.68;3.83;;;;;;;2.19;89.81;100782.69;5090284;28;20108;-74
2023/03/12 06:11:31;;;;;;;10.48;3.83;;;;;;;2.21;90.19;100797.50;5069376;28;20025;-74
2023/03/12 06:13:57;;;;;;;9.38;4.00;;;;;;;2.18;91.07;100794.88;5080374;28;20078;-74
2023/03/12 06:16:25;;;;;;;15.32;3.78;;;;;;;2.20;91.67;100794.88;5071253;28;20150;-74
2023/03/12 06:18:58;;;;;;;8.43;3.85;;;;;;;2.19;91.59;100798.34;5074196;28;20506;-74
2023/03/12 06:21:28;;;;;;;14.13;4.10;;;;;;;2.20;92.34;100795.78;5078433;28;20447;-74
2023/03/12 06:23:54;;;;;;;6.60;3.65;;;;;;;2.19;92.50;100795.75;5062997;28;20048;-74
2023/03/12 06:26:31;;;;;;;5.65;3.70;;;;;;;2.24;93.06;100804.50;5066447;28;20032;-74
2023/03/12 06:28:56;;;;;;;11.82;4.15;;;;;;;2.20;92.32;100780.09;5086555;28;20032;-74
2023/03/12 06:31:22;;;;;;;9.45;4.22;;;;;;;2.25;93.04;100786.25;5083153;28;20069;-74
2023/03/12 06:33:48;;;;;;;10.88;4.32;;;;;;;2.28;94.25;100788.88;5083238;28;20036;-74
2023/03/12 06:36:13;;;;;;;7.63;4.03;;;;;;;2.28;94.96;100777.56;5083542;28;20035;-74
2023/03/12 06:38:39;;;;;;;11.82;3.83;;;;;;;2.31;95.00;100780.19;5091763;28;20047;-74
2023/03/12 06:41:12;;;;;;;10.45;4.03;;;;;;;2.31;95.97;100788.91;5073191;28;20032;-75
2023/03/12 06:43:38;;;;;;;8.73;4.15;;;;;;;2.28;97.34;100775.81;5091205;28;20028;-74
2023/03/12 06:46:06;;;;;;;14.00;4.93;;;;;;;2.29;96.88;100777.56;5089724;28;20076;-73
2023/03/12 06:48:35;;;;;;;8.75;3.88;;;;;;;2.29;97.54;100769.72;5090036;28;20044;-73
2023/03/12 06:51:02;;;;;;;10.50;4.60;;;;;;;2.30;98.52;100768.88;5091175;28;20047;-73
2023/03/12 06:53:27;;;;;;;10.48;5.03;;;;;;;2.32;99.20;100755.81;5090515;28;20059;-74
2023/03/12 06:55:53;;;;;;;7.30;3.90;;;;;;;2.32;99.39;100748.84;5091043;28;20463;-73
2023/03/12 06:58:19;;;;;;;8.20;4.25;;;;;;;2.35;99.95;100755.88;5049408;28;20123;-73
2023/03/12 07:00:44;;;;;;;8.57;4.25;;;;;;;2.38;98.94;100749.78;5085424;28;20028;-74
2023/03/12 07:03:10;;;;;;;14.55;4.35;;;;;;;2.40;99.98;100750.66;5091275;28;20528;-74
2023/03/12 07:05:35;;;;;;;11.43;4.75;;;;;;;2.37;100.00;100741.06;5088982;28;20556;-74
2023/03/12 07:08:01;;;;;;;7.47;4.72;;;;;;;2.40;100.00;100748.94;5084819;28;20048;-74
2023/03/12 07:10:28;;;;;;;9.38;4.93;;;;;;;2.42;100.00;100751.56;5086135;28;20103;-74
2023/03/12 07:12:54;;;;;;;10.85;4.68;;;;;;;2.44;100.00;100745.47;5091955;28;20044;-73
2023/03/12 07:15:21;;;;;;;9.23;4.63;;;;;;;2.44;100.00;100740.25;5088314;28;20381;-74
2023/03/12 07:17:46;;;;;;;10.15;5.07;;;;;;;2.47;100.00;100737.66;5088133;28;20035;-74
2023/03/12 07:20:12;;;;;;;15.90;5.20;;;;;;;2.51;100.00;100741.19;5094568;28;20059;-74
2023/03/12 07:22:37;;;;;;;9.75;4.63;;;;;;;2.57;100.00;100743.84;5094515;28;20028;-74
2023/03/12 07:25:03;;;;;;;9.45;3.83;;;;;;;2.63;100.00;100745.66;5092357;28;20056;-73
2023/03/12 07:27:29;;;;;;;9.18;5.50;;;;;;;2.59;100.00;100743.00;5090211;28;20441;-74
2023/03/12 07:29:54;;;;;;;15.07;4.72;;;;;;;2.59;100.00;100740.38;5091626;28;20034;-74
2023/03/12 07:32:20;;;;;;;11.85;5.30;;;;;;;2.57;100.00;100747.38;5065432;28;20032;-74
2023/03/12 07:34:45;;;;;;;8.35;4.32;;;;;;;2.57;100.00;100746.47;5094278;28;20020;-74
2023/03/12 07:37:14;;;;;;;8.80;4.72;;;;;;;2.58;100.00;100750.84;5093017;28;20032;-73
2023/03/12 07:39:39;;;;;;;10.13;5.22;;;;;;;2.54;100.00;100746.44;5073790;28;20024;-74
2023/03/12 07:42:05;;;;;;;11.93;5.40;;;;;;;2.56;100.00;100750.81;5093907;28;20405;-74
2023/03/12 07:44:32;;;;;;;9.02;4.68;;;;;;;2.53;100.00;100748.19;5092867;28;20043;-74
2023/03/12 07:46:58;;;;;;;9.27;5.18;;;;;;;2.57;100.00;100754.31;5093805;28;20093;-74
2023/03/12 07:49:23;;;;;;;12.20;5.28;;;;;;;2.57;100.00;100749.06;5088806;28;20024;-74
2023/03/12 07:51:49;;;;;;;9.07;4.82;;;;;;;2.59;100.00;100752.59;5092609;28;20040;-74
2023/03/12 07:54:14;;;;;;;11.50;5.25;;;;;;;2.63;100.00;100757.00;5074111;28;20064;-74
2023/03/12 07:56:40;;;;;;;11.77;5.25;;;;;;;2.65;100.00;100757.88;5092518;28;20043;-74
2023/03/12 07:59:05;;;;;;;10.55;5.28;;;;;;;2.64;100.00;100755.25;5075884;28;20062;-74
2023/03/12 08:01:31;;;;;;;7.22;5.25;;;;;;;2.70;100.00;100756.19;5085090;28;20064;-73
2023/03/12 08:03:58;;;;;;;7.75;5.30;;;;;;;2.71;100.00;100750.09;5067908;28;20116;-74
2023/03/12 08:06:23;;;;;;;7.95;4.78;;;;;;;2.77;100.00;100744.91;5092321;28;20071;-74
2023/03/12 08:08:49;;;;;;;10.63;4.95;;;;;;;2.79;100.00;100753.66;5093801;28;20055;-73
2023/03/12 08:11:14;;;;;;;13.60;6.28;;;;;;;2.85;100.00;100749.34;5055113;28;20062;-74
2023/03/12 08:13:40;;;;;;;8.45;5.90;;;;;;;2.88;100.00;100744.13;5083466;28;20485;-73
2023/03/12 08:16:05;;;;;;;8.98;4.95;;;;;;;2.92;100.00;100745.91;5093282;28;20067;-74
2023/03/12 08:18:31;;;;;;;12.18;6.88;;;;;;;2.95;100.00;100746.81;5074446;28;20063;-74
2023/03/12 08:20:57;;;;;;;8.48;5.57;;;;;;;3.01;100.00;100746.84;5092133;28;20128;-74
2023/03/12 08:23:22;;;;;;;8.18;5.07;;;;;;;3.04;100.00;100750.34;5077406;28;20027;-73
2023/03/12 08:25:49;;;;;;;11.18;6.30;;;;;;;3.06;100.00;100751.25;5082499;28;20043;-74
2023/03/12 08:28:15;;;;;;;8.15;5.60;;;;;;;3.09;100.00;100748.63;5091736;28;20020;-74
2023/03/12 08:30:50;;;;;;;11.40;5.80;;;;;;;3.14;100.00;100744.31;5093223;28;20032;-74
2023/03/12 08:33:16;;;;;;;9.63;5.63;;;;;;;3.16;100.00;100753.91;5091934;28;20032;-74
2023/03/12 08:35:42;;;;;;;14.18;6.30;;;;;;;3.22;100.00;100751.38;5093216;28;20027;-73
2023/03/12 08:38:07;;;;;;;12.38;6.55;;;;;;;3.30;100.00;100767.13;5093306;28;20513;-74
2023/03/12 08:40:33;;;;;;;8.23;5.85;;;;;;;3.33;100.00;100763.63;5079337;28;20033;-73
2023/03/12 08:42:58;;;;;;;9.32;5.85;;;;;;;3.38;100.00;100765.41;5074650;28;20135;-73
2023/03/12 08:45:24;;;;;;;9.32;5.90;;;;;;;3.44;100.00;100765.47;5077862;28;20020;-73
2023/03/12 08:47:49;;;;;;;10.43;6.15;;;;;;;3.51;100.00;100782.09;5091380;28;20541;-72
2023/03/12 08:50:15;;;;;;;10.65;6.60;;;;;;;3.56;100.00;100782.09;5091710;28;20035;-73
2023/03/12 08:52:42;;;;;;;10.40;6.18;;;;;;;3.62;100.00;100780.41;5078710;28;20024;-73
2023/03/12 08:55:09;;;;;;;10.20;6.50;;;;;;;3.68;100.00;100779.53;5082344;28;20032;-73
2023/03/12 08:57:34;;;;;;;11.18;6.55;;;;;;;3.79;100.00;100784.84;5087779;28;20526;-73
2023/03/12 09:00:00;;;;;;;13.48;7.68;;;;;;;3.84;100.00;100780.50;5070284;28;20040;-83
2023/03/12 09:02:29;;;;;;;13.00;7.35;;;;;;;3.92;100.00;100780.53;5090344;28;20052;-83
2023/03/12 09:04:54;;;;;;;15.75;9.80;;;;;;;3.99;100.00;100779.72;5090308;28;20359;-83
2023/03/12 09:07:21;;;;;;;15.52;8.68;;;;;;;4.05;100.00;100771.84;5090345;28;20126;-83
2023/03/12 09:09:47;;;;;;;18.73;11.25;;;;;;;4.12;100.00;100780.63;5087609;28;20416;-83
2023/03/12 09:12:12;;;;;;;19.65;12.40;;;;;;;4.21;100.00;100786.78;5092557;28;20032;-82
2023/03/12 09:14:38;;;;;;;21.35;14.38;;;;;;;4.35;100.00;100783.31;5088296;28;20102;-81
2023/03/12 09:17:07;;;;;;;21.63;10.95;;;;;;;4.41;100.00;100778.09;5090774;28;20039;-82
2023/03/12 09:19:32;;;;;;;20.50;13.07;;;;;;;4.49;100.00;100771.97;5089337;28;20458;-82
2023/03/12 09:21:58;;;;;;;22.23;13.63;;;;;;;4.57;100.00;100779.84;5092247;28;20043;-83
2023/03/12 09:24:23;;;;;;;25.13;16.30;;;;;;;4.68;100.00;100770.28;5090294;28;20098;-82
2023/03/12 09:26:49;;;;;;;27.20;17.10;;;;;;;4.78;100.00;100759.78;5072124;28;20415;-81
2023/03/12 09:29:14;;;;;;;26.58;17.17;;;;;;;4.88;100.00;100765.03;5089672;28;20591;-83
2023/03/12 09:31:40;;;;;;;24.35;15.13;;;;;;;4.99;100.00;100762.41;5055207;28;20401;-83
2023/03/12 09:34:06;;;;;;;30.48;17.50;;;;;;;5.15;100.00;100771.16;5091893;28;20052;-82
2023/03/12 09:36:32;;;;;;;30.35;19.50;;;;;;;5.25;100.00;100769.41;5081819;28;20151;-82
2023/03/12 09:38:58;;;;;;;24.02;17.80;;;;;;;5.38;100.00;100763.25;5087724;28;20043;-82
2023/03/12 09:41:30;;;;;;;27.58;19.83;;;;;;;5.47;100.00;100757.97;5091788;28;20039;-83
2023/03/12 09:44:12;;;;;;;29.50;19.98;;;;;;;5.61;100.00;100763.19;5081605;28;20430;-82
2023/03/12 09:46:45;;;;;;;33.63;20.65;;;;;;;5.73;100.00;100770.16;5087907;28;20051;-82
2023/03/12 09:49:21;;;;;;;26.17;19.52;;;;;;;5.85;100.00;100777.13;5083612;28;20028;-81
2023/03/12 09:51:53;;;;;;;34.03;22.92;;;;;;;5.92;100.00;100782.34;5081862;28;20107;-82
2023/03/12 09:54:40;;;;;;;;;;;;;;;6.06;100.00;100786.72;5082918;28;20115;-82
2023/03/12 09:57:13;;;;;;;26.90;19.30;;;;;;;6.17;100.00;100798.94;5058484;28;20006;-82
2023/03/12 09:59:38;;;;;;;28.98;20.35;;;;;;;6.28;100.00;100791.00;5077247;28;20037;-82
2023/03/12 10:02:32;;;;;;;36.08;22.27;;;;;;;6.37;100.00;100790.94;5075390;28;20151;-82
2023/03/12 10:05:04;;;;;;;37.50;21.73;;;;;;;6.47;100.00;100795.25;5055255;28;20044;-82
2023/03/12 10:07:38;;;;;;;28.42;18.60;;;;;;;6.53;100.00;100791.75;5083981;28;20039;-82
2023/03/12 10:10:36;;;;;;;26.52;17.00;;;;;;;6.60;100.00;100796.09;5076050;28;20023;-82
2023/03/12 10:13:34;;;;;;;27.95;19.45;;;;;;;6.68;100.00;100796.91;5052777;28;20071;-82
2023/03/12 10:16:21;;;;;;;26.75;19.80;;;;;;;6.77;100.00;100789.81;5079918;28;20036;-81
2023/03/12 10:18:46;;;;;;;29.27;19.08;;;;;;;6.84;100.00;100791.53;5090595;28;20674;-81
2023/03/12 10:21:30;;;;;;;30.38;19.02;;;;;;;6.89;100.00;100787.09;5088255;28;20024;-80
2023/03/12 10:24:15;;;;;;;29.08;20.95;;;;;;;6.95;100.00;100786.16;5087119;28;20127;-81
2023/03/12 10:26:48;;;;;;;23.83;17.42;;;;;;;7.02;100.00;100779.97;5089990;28;20455;-81
2023/03/12 10:29:38;;;;;;;30.25;17.25;;;;;;;7.15;100.00;100779.00;5084212;28;20262;-81
2023/03/12 10:32:09;;;;;;;27.38;19.02;;;;;;;7.19;100.00;100790.38;5069615;28;20031;-81
2023/03/12 10:34:41;;;;;;;23.70;16.27;;;;;;;7.25;100.00;100780.66;5093005;28;20028;-82
2023/03/12 10:37:22;;;;;;;28.92;19.45;;;;;;;7.26;100.00;100794.69;5085538;28;20047;-82
2023/03/12 10:39:48;;;;;;;29.80;18.27;;;;;;;7.33;100.00;100786.72;5093800;28;20488;-82
2023/03/12 10:42:18;;;;;;;28.42;17.45;;;;;;;7.40;100.00;100789.31;5090277;28;20313;-82
2023/03/12 10:44:46;;;;;;;29.23;18.05;;;;;;;7.45;100.00;100792.78;5084859;28;20039;-81
2023/03/12 10:47:31;;;;;;;28.55;18.00;;;;;;;7.49;100.00;100784.84;5091522;28;20081;-79
2023/03/12 10:50:24;;;;;;;32.65;17.65;;;;;;;7.52;100.00;100783.94;5083484;28;20402;-80
2023/03/12 10:53:18;;;;;;;30.05;17.40;;;;;;;7.59;100.00;100785.59;5080764;28;20124;-80
2023/03/12 10:56:16;;;;;;;30.23;16.98;;;;;;;7.64;100.00;100783.78;5088601;28;20032;-80
2023/03/12 10:58:43;;;;;;;27.80;15.70;;;;;;;7.68;100.00;100789.91;5084772;28;20048;-80
2023/03/12 11:01:28;;;;;;;27.88;14.13;;;;;;;7.72;100.00;100796.88;5088600;28;20024;-82
2023/03/12 11:04:15;;;;;;;28.48;14.38;;;;;;;7.76;100.00;100788.03;5092124;28;20036;-83
2023/03/12 11:06:41;;;;;;;23.92;14.55;;;;;;;7.77;100.00;100789.81;5081286;28;20089;-81
2023/03/12 11:09:17;;;;;;;27.73;14.43;;;;;;;7.82;100.00;100780.06;5086955;28;20105;-81
2023/03/12 11:11:46;;;;;;;31.42;14.60;;;;;;;7.84;100.00;100791.47;5093320;28;20032;-81
2023/03/12 11:14:19;;;;;;;31.83;15.65;;;;;;;7.91;100.00;100794.91;5073584;28;20108;-81
2023/03/12 11:16:45;;;;;;;31.92;14.40;;;;;;;7.94;100.00;100787.84;5085624;28;20046;-81
2023/03/12 11:19:26;;;;;;;33.58;15.38;;;;;;;7.94;100.00;100795.75;5065781;28;20036;-80
2023/03/12 11:21:58;;;;;;;31.80;13.15;;;;;;;8.03;100.00;100802.66;5087060;28;20462;-82
2023/03/12 11:24:24;;;;;;;27.27;12.70;;;;;;;8.06;100.00;100807.03;5100537;28;20036;-82
2023/03/12 11:27:05;;;;;;;34.03;14.38;;;;;;;8.12;100.00;100799.94;5077308;28;20089;-81
2023/03/12 11:29:43;;;;;;;38.55;13.38;;;;;;;8.17;100.00;100798.09;5093379;28;20124;-82
2023/03/12 11:32:32;;;;;;;33.63;12.52;;;;;;;8.23;100.00;100814.75;5083280;28;20070;-81